Time;durP1;ratioP1;P1;durP2;ratioP2;P2;SDS_P1;SDS_P2;PMS_P1;PMS_P2;Temp;Humidity;BMP_temperature;BMP_pressure;BME280_temperature;BME280_humidity;BME280_pressure;Samples;Min_cycle;Max_cycle;Signal;HPM_P1;HPM_P2
2023/09/28 00:01:35;;;;;;;10.18;3.28;;;;;;;;;;5018840;28;20063;-70
2023/09/28 00:04:02;;;;;;;7.20;3.35;;;;;;;;;;5037593;28;20049;-70
2023/09/28 00:06:28;;;;;;;9.02;3.08;;;;;;;;;;5037325;28;20049;-69
2023/09/28 00:08:55;;;;;;;9.40;3.83;;;;;;;;;;5021692;28;20055;-70
2023/09/28 00:11:22;;;;;;;6.90;3.20;;;;;;;;;;5016112;28;20067;-70
2023/09/28 00:13:49;;;;;;;8.20;3.28;;;;;;;;;;5042397;28;20045;-70
2023/09/28 00:16:15;;;;;;;7.35;3.67;;;;;;;;;;5044041;28;20057;-72
2023/09/28 00:18:41;;;;;;;6.80;3.28;;;;;;;;;;5045712;28;20075;-70
2023/09/28 00:21:08;;;;;;;6.97;3.60;;;;;;;;;;5033610;28;20211;-70
2023/09/28 00:23:34;;;;;;;8.32;3.72;;;;;;;;;;5036383;28;20080;-70
2023/09/28 00:26:02;;;;;;;8.20;3.53;;;;;;;;;;5006810;28;20049;-70
2023/09/28 00:28:29;;;;;;;6.60;3.40;;;;;;;;;;5038127;28;20119;-70
2023/09/28 00:30:56;;;;;;;9.50;3.40;;;;;;;;;;5039467;28;20067;-70
2023/09/28 00:33:22;;;;;;;8.25;3.80;;;;;;;;;;5030469;28;20103;-70
2023/09/28 00:35:49;;;;;;;8.30;4.10;;;;;;;;;;5026159;28;20072;-70
2023/09/28 00:38:14;;;;;;;9.57;3.58;;;;;;;;;;5018730;28;20122;-71
2023/09/28 00:40:42;;;;;;;7.43;3.35;;;;;;;;;;5036532;28;20065;-70
2023/09/28 00:43:08;;;;;;;7.15;3.40;;;;;;;;;;5032711;28;20081;-70
2023/09/28 00:45:38;;;;;;;5.60;3.25;;;;;;;;;;5035832;28;20188;-70
2023/09/28 00:48:06;;;;;;;11.27;3.90;;;;;;;;;;5025480;28;20115;-70
2023/09/28 00:50:33;;;;;;;11.13;3.33;;;;;;;;;;5018796;28;20259;-70
2023/09/28 00:53:00;;;;;;;7.25;2.92;;;;;;;;;;5019214;28;20156;-71
2023/09/28 00:55:28;;;;;;;8.73;3.63;;;;;;;;;;5012198;28;20056;-70
2023/09/28 00:58:00;;;;;;;9.65;3.42;;;;;;;;;;5016480;28;20138;-71
2023/09/28 01:00:28;;;;;;;7.25;3.00;;;;;;;;;;5039230;28;20084;-70
2023/09/28 01:02:57;;;;;;;5.53;2.65;;;;;;;;;;5021951;28;20059;-70
2023/09/28 01:05:27;;;;;;;8.02;2.80;;;;;;;;;;5029364;28;20067;-70
2023/09/28 01:07:55;;;;;;;5.47;2.50;;;;;;;;;;5050512;28;20049;-70
2023/09/28 01:10:23;;;;;;;11.90;3.17;;;;;;;;;;5039558;28;20071;-70
2023/09/28 01:12:50;;;;;;;8.15;2.75;;;;;;;;;;5034087;28;20057;-70
2023/09/28 01:15:16;;;;;;;8.82;2.92;;;;;;;;;;5021070;28;20071;-70
2023/09/28 01:17:44;;;;;;;9.38;2.65;;;;;;;;;;5036797;28;20126;-70
2023/09/28 01:20:18;;;;;;;5.35;2.55;;;;;;;;;;5022874;28;20045;-70
2023/09/28 01:22:49;;;;;;;6.57;2.80;;;;;;;;;;5022520;28;20094;-70
2023/09/28 01:25:15;;;;;;;6.55;2.90;;;;;;;;;;5034930;28;20065;-71
2023/09/28 01:27:45;;;;;;;10.25;3.17;;;;;;;;;;5018083;28;20057;-70
2023/09/28 01:30:11;;;;;;;7.53;2.80;;;;;;;;;;5039819;28;20051;-70
2023/09/28 01:32:38;;;;;;;6.85;2.90;;;;;;;;;;5026758;28;20071;-70
2023/09/28 01:35:06;;;;;;;6.13;2.67;;;;;;;;;;5019539;28;20081;-70
2023/09/28 01:37:41;;;;;;;5.05;2.50;;;;;;;;;;5020870;28;20080;-70
2023/09/28 01:40:09;;;;;;;7.47;2.72;;;;;;;;;;5027952;28;20052;-71
2023/09/28 01:42:36;;;;;;;7.30;2.63;;;;;;;;;;5050092;28;20064;-70
2023/09/28 01:45:03;;;;;;;6.00;2.65;;;;;;;;;;5019822;28;20079;-70
2023/09/28 01:47:30;;;;;;;6.82;3.15;;;;;;;;;;5013398;28;20224;-70
2023/09/28 01:49:56;;;;;;;7.57;2.97;;;;;;;;;;5021182;28;20056;-70
2023/09/28 01:52:23;;;;;;;7.32;2.63;;;;;;;;;;5026740;28;20068;-70
2023/09/28 01:54:49;;;;;;;6.43;2.55;;;;;;;;;;5021024;28;20053;-71
2023/09/28 01:57:17;;;;;;;9.10;3.20;;;;;;;;;;5010506;28;20064;-70
2023/09/28 01:59:43;;;;;;;5.65;2.70;;;;;;;;;;5039226;28;20056;-70
2023/09/28 02:02:10;;;;;;;6.05;2.60;;;;;;;;;;5020827;28;20055;-71
2023/09/28 02:04:37;;;;;;;9.60;3.05;;;;;;;;;;5001304;28;20055;-70
2023/09/28 02:07:04;;;;;;;7.38;3.10;;;;;;;;;;5053664;28;20117;-70
2023/09/28 02:09:29;;;;;;;7.22;2.80;;;;;;;;;;5044739;28;20056;-71
2023/09/28 02:11:56;;;;;;;9.88;3.00;;;;;;;;;;5023664;28;20068;-71
2023/09/28 02:14:23;;;;;;;6.78;3.20;;;;;;;;;;5040902;28;20049;-71
2023/09/28 02:16:50;;;;;;;7.97;3.55;;;;;;;;;;5035226;28;20063;-70
2023/09/28 02:19:16;;;;;;;5.88;2.97;;;;;;;;;;5024157;28;20063;-70
2023/09/28 02:21:43;;;;;;;7.40;3.05;;;;;;;;;;5053313;28;20056;-71
2023/09/28 02:24:09;;;;;;;7.85;2.83;;;;;;;;;;5043616;28;20056;-71
2023/09/28 02:26:37;;;;;;;9.77;2.90;;;;;;;;;;5022441;28;20048;-70
2023/09/28 02:29:02;;;;;;;7.35;2.55;;;;;;;;;;5025202;28;20175;-70
2023/09/28 02:31:34;;;;;;;8.90;3.80;;;;;;;;;;5022998;28;20048;-71
2023/09/28 02:34:00;;;;;;;8.50;3.30;;;;;;;;;;4986165;28;20049;-70
2023/09/28 02:36:32;;;;;;;9.45;3.17;;;;;;;;;;5018030;28;20142;-71
2023/09/28 02:38:58;;;;;;;7.38;3.25;;;;;;;;;;5056840;28;20055;-71
2023/09/28 02:41:25;;;;;;;7.85;3.10;;;;;;;;;;5044634;28;20048;-70
2023/09/28 02:43:51;;;;;;;7.03;3.03;;;;;;;;;;4976315;28;20061;-70
2023/09/28 02:46:18;;;;;;;7.78;2.88;;;;;;;;;;5022792;28;20082;-71
2023/09/28 02:48:46;;;;;;;7.22;3.53;;;;;;;;;;5054086;28;20123;-70
2023/09/28 02:51:12;;;;;;;10.65;3.10;;;;;;;;;;5039648;28;20060;-70
2023/09/28 02:53:39;;;;;;;9.38;3.25;;;;;;;;;;5039218;28;20147;-70
2023/09/28 02:56:06;;;;;;;12.60;3.00;;;;;;;;;;5038635;28;20048;-71
2023/09/28 02:58:32;;;;;;;8.32;3.13;;;;;;;;;;5036830;28;20056;-70
2023/09/28 03:01:02;;;;;;;8.63;3.00;;;;;;;;;;5040795;28;20052;-70
2023/09/28 03:03:28;;;;;;;6.57;2.75;;;;;;;;;;5058228;28;20056;-70
2023/09/28 03:05:58;;;;;;;7.93;3.05;;;;;;;;;;5016963;28;20052;-70
2023/09/28 03:08:24;;;;;;;7.90;3.30;;;;;;;;;;5016342;28;20115;-70
2023/09/28 03:10:51;;;;;;;6.40;3.13;;;;;;;;;;5034505;28;20079;-71
2023/09/28 03:13:18;;;;;;;7.95;3.22;;;;;;;;;;5038044;28;20076;-70
2023/09/28 03:15:45;;;;;;;6.97;3.35;;;;;;;;;;5006461;28;20049;-71
2023/09/28 03:18:12;;;;;;;6.90;3.42;;;;;;;;;;5021304;28;20079;-70
2023/09/28 03:20:41;;;;;;;7.80;3.03;;;;;;;;;;5013437;28;20411;-70
2023/09/28 03:23:08;;;;;;;8.77;3.42;;;;;;;;;;5037730;28;20057;-71
2023/09/28 03:25:35;;;;;;;7.53;3.58;;;;;;;;;;5016811;28;20049;-71
2023/09/28 03:28:01;;;;;;;7.28;3.20;;;;;;;;;;5021755;28;20096;-71
2023/09/28 03:30:28;;;;;;;8.02;3.67;;;;;;;;;;5017191;28;20087;-71
2023/09/28 03:32:56;;;;;;;6.28;3.03;;;;;;;;;;5016471;28;20049;-70
2023/09/28 03:35:23;;;;;;;7.60;3.25;;;;;;;;;;5006581;28;20123;-70
2023/09/28 03:37:53;;;;;;;9.63;3.70;;;;;;;;;;5046085;28;20052;-71
2023/09/28 03:40:22;;;;;;;6.53;3.35;;;;;;;;;;5039634;28;20040;-70
2023/09/28 03:42:49;;;;;;;;;;;;;;;;;;5034149;28;20147;-70
2023/09/28 03:45:19;;;;;;;9.13;3.53;;;;;;;;;;5017335;28;19928;-71
2023/09/28 03:47:46;;;;;;;14.27;3.97;;;;;;;;;;5021656;28;20088;-71
2023/09/28 03:50:14;;;;;;;8.90;4.20;;;;;;;;;;5019115;28;20073;-70
2023/09/28 03:52:42;;;;;;;9.10;4.13;;;;;;;;;;5015793;28;20204;-71
2023/09/28 03:55:10;;;;;;;6.95;3.58;;;;;;;;;;5016320;28;20067;-70
2023/09/28 03:57:38;;;;;;;7.72;3.58;;;;;;;;;;5040544;28;20141;-70
2023/09/28 04:00:12;;;;;;;7.68;3.60;;;;;;;;;;5035992;28;20285;-71
2023/09/28 04:02:39;;;;;;;7.63;3.95;;;;;;;;;;5046272;28;20123;-70
2023/09/28 04:05:08;;;;;;;7.85;4.03;;;;;;;;;;5002546;28;20048;-70
2023/09/28 04:07:35;;;;;;;8.90;4.13;;;;;;;;;;5028942;28;20128;-70
2023/09/28 04:10:04;;;;;;;11.13;3.70;;;;;;;;;;5037204;28;20064;-70
2023/09/28 04:12:31;;;;;;;8.07;3.63;;;;;;;;;;5023309;28;20075;-70
2023/09/28 04:14:59;;;;;;;11.75;3.38;;;;;;;;;;5024760;28;20056;-70
2023/09/28 04:17:26;;;;;;;7.57;3.47;;;;;;;;;;5055439;28;20161;-68
2023/09/28 04:19:53;;;;;;;11.63;5.60;;;;;;;;;;5019931;28;20068;-69
2023/09/28 04:22:20;;;;;;;11.45;5.15;;;;;;;;;;5018696;28;20081;-74
2023/09/28 04:24:47;;;;;;;10.98;5.78;;;;;;;;;;5008982;28;20048;-70
2023/09/28 04:27:14;;;;;;;10.30;5.05;;;;;;;;;;5020231;28;20052;-70
2023/09/28 04:29:41;;;;;;;10.63;4.60;;;;;;;;;;5020212;28;20059;-70
2023/09/28 04:32:09;;;;;;;8.23;3.30;;;;;;;;;;5021192;28;20053;-70
2023/09/28 04:34:36;;;;;;;;;;;;;;;;;;5018857;28;20056;-70
2023/09/28 04:37:04;;;;;;;7.10;3.28;;;;;;;;;;5023217;28;19924;-69
2023/09/28 04:39:33;;;;;;;8.90;3.42;;;;;;;;;;5024950;28;20061;-69
2023/09/28 04:42:00;;;;;;;7.90;3.13;;;;;;;;;;5023241;28;20070;-71
2023/09/28 04:44:27;;;;;;;131.45;78.18;;;;;;;;;;5012622;28;20081;-68
2023/09/28 04:46:54;;;;;;;38.38;19.48;;;;;;;;;;5022891;28;20053;-69
2023/09/28 04:49:23;;;;;;;13.02;4.50;;;;;;;;;;5022722;28;20060;-69
2023/09/28 04:51:51;;;;;;;8.65;3.63;;;;;;;;;;5040736;28;20057;-69
2023/09/28 04:54:18;;;;;;;8.85;3.55;;;;;;;;;;4997544;28;20060;-70
2023/09/28 04:56:45;;;;;;;11.02;3.30;;;;;;;;;;5033478;28;20091;-70
2023/09/28 04:59:12;;;;;;;9.00;3.53;;;;;;;;;;5021827;28;20186;-69
2023/09/28 05:01:39;;;;;;;8.18;3.10;;;;;;;;;;5022119;28;20064;-69
2023/09/28 05:04:10;;;;;;;6.70;3.53;;;;;;;;;;5033070;28;20056;-70
2023/09/28 05:06:39;;;;;;;9.75;3.35;;;;;;;;;;5031523;28;20068;-70
2023/09/28 05:09:06;;;;;;;8.13;3.25;;;;;;;;;;5026012;28;20071;-70
2023/09/28 05:11:32;;;;;;;8.75;3.42;;;;;;;;;;5022787;28;20130;-72
2023/09/28 05:13:59;;;;;;;29.17;12.65;;;;;;;;;;5006056;28;20061;-69
2023/09/28 05:16:26;;;;;;;23.17;10.77;;;;;;;;;;5017554;28;20060;-71
2023/09/28 05:18:53;;;;;;;9.95;4.22;;;;;;;;;;5037617;28;20063;-70
2023/09/28 05:21:20;;;;;;;10.13;4.35;;;;;;;;;;5039448;28;20060;-70
2023/09/28 05:23:48;;;;;;;14.57;5.80;;;;;;;;;;5012864;28;20152;-71
2023/09/28 05:26:15;;;;;;;16.60;7.65;;;;;;;;;;5020110;28;20053;-70
2023/09/28 05:28:41;;;;;;;12.50;4.57;;;;;;;;;;5016175;28;20049;-72
2023/09/28 05:31:08;;;;;;;10.00;3.88;;;;;;;;;;5022011;28;20262;-72
2023/09/28 05:33:35;;;;;;;13.75;3.63;;;;;;;;;;5022114;28;20057;-72
2023/09/28 05:36:02;;;;;;;10.23;3.67;;;;;;;;;;4987647;28;20145;-72
2023/09/28 05:38:28;;;;;;;9.45;3.58;;;;;;;;;;5020031;28;20088;-69
2023/09/28 05:40:57;;;;;;;9.05;3.47;;;;;;;;;;5024351;28;20069;-73
2023/09/28 05:43:24;;;;;;;15.85;3.72;;;;;;;;;;5007341;28;20085;-70
2023/09/28 05:45:51;;;;;;;11.57;4.93;;;;;;;;;;4934139;28;20060;-70
2023/09/28 05:48:19;;;;;;;25.45;9.07;;;;;;;;;;4999966;28;20049;-71
2023/09/28 05:50:45;;;;;;;11.60;4.10;;;;;;;;;;5003017;28;20053;-71
2023/09/28 05:53:12;;;;;;;9.95;3.67;;;;;;;;;;5027533;28;20041;-71
2023/09/28 05:55:40;;;;;;;8.82;3.13;;;;;;;;;;5016298;28;20061;-71
2023/09/28 05:58:08;;;;;;;11.60;3.30;;;;;;;;;;5038941;28;20061;-71
2023/09/28 06:00:37;;;;;;;11.88;3.05;;;;;;;;;;5018196;28;20051;-71
2023/09/28 06:03:05;;;;;;;8.30;2.40;;;;;;;;;;5022711;28;20110;-71
2023/09/28 06:05:32;;;;;;;7.43;2.73;;;;;;;;;;4997872;28;20052;-71
2023/09/28 06:07:59;;;;;;;11.13;2.88;;;;;;;;;;5026224;28;20130;-71
2023/09/28 06:10:31;;;;;;;7.57;2.58;;;;;;;;;;5019071;28;20052;-72
2023/09/28 06:12:58;;;;;;;11.90;3.20;;;;;;;;;;5039048;28;20055;-72
2023/09/28 06:15:26;;;;;;;14.38;2.90;;;;;;;;;;5017076;28;20056;-71
2023/09/28 06:17:53;;;;;;;9.68;2.80;;;;;;;;;;5021042;28;20052;-70
2023/09/28 06:20:24;;;;;;;15.23;2.80;;;;;;;;;;5019325;28;20060;-71
2023/09/28 06:22:51;;;;;;;10.90;2.95;;;;;;;;;;5016552;28;20060;-71
2023/09/28 06:25:17;;;;;;;15.93;3.35;;;;;;;;;;5015574;28;20049;-71
2023/09/28 06:27:44;;;;;;;10.02;2.83;;;;;;;;;;5022765;28;20044;-71
2023/09/28 06:30:12;;;;;;;11.95;3.05;;;;;;;;;;5039797;28;20065;-71
2023/09/28 06:32:40;;;;;;;9.43;2.60;;;;;;;;;;5013161;28;20061;-70
2023/09/28 06:35:11;;;;;;;13.52;3.00;;;;;;;;;;4998117;28;20095;-70
2023/09/28 06:37:38;;;;;;;12.95;2.97;;;;;;;;;;5020987;28;20076;-73
2023/09/28 06:40:07;;;;;;;12.20;2.80;;;;;;;;;;5021299;28;20104;-73
2023/09/28 06:42:36;;;;;;;11.30;2.78;;;;;;;;;;5014367;28;20057;-72
2023/09/28 06:45:05;;;;;;;9.45;2.47;;;;;;;;;;4998285;28;20057;-72
2023/09/28 06:47:35;;;;;;;12.93;2.50;;;;;;;;;;5019125;28;20049;-72
2023/09/28 06:50:13;;;;;;;15.13;2.55;;;;;;;;;;5020967;28;20064;-71
2023/09/28 06:52:40;;;;;;;16.13;2.73;;;;;;;;;;5036584;28;20056;-70
2023/09/28 06:55:08;;;;;;;11.35;2.60;;;;;;;;;;4998150;28;20084;-69
2023/09/28 06:57:34;;;;;;;17.70;3.10;;;;;;;;;;5036893;28;20056;-69
2023/09/28 07:00:06;;;;;;;12.52;2.60;;;;;;;;;;5021238;28;20096;-72
2023/09/28 07:02:33;;;;;;;11.85;2.30;;;;;;;;;;5012382;28;20091;-70
2023/09/28 07:05:00;;;;;;;16.17;2.88;;;;;;;;;;4983831;28;20045;-69
2023/09/28 07:07:29;;;;;;;16.70;2.63;;;;;;;;;;5038350;28;20071;-70
2023/09/28 07:09:57;;;;;;;;;;;;;;;;;;5038706;28;20060;-70
2023/09/28 07:12:24;;;;;;;;;;;;;;;;;;5018409;28;19932;-70
2023/09/28 07:14:51;;;;;;;12.85;2.42;;;;;;;;;;4994238;28;19983;-70
2023/09/28 07:17:18;;;;;;;18.65;2.33;;;;;;;;;;5020137;28;20048;-71
2023/09/28 07:19:45;;;;;;;26.40;5.82;;;;;;;;;;5019456;28;20052;-70
2023/09/28 07:22:12;;;;;;;34.75;13.02;;;;;;;;;;5038209;28;20053;-70
2023/09/28 07:24:42;;;;;;;27.25;4.93;;;;;;;;;;5013768;28;20132;-72
2023/09/28 07:27:09;;;;;;;20.60;2.90;;;;;;;;;;5022913;28;20079;-72
2023/09/28 07:29:38;;;;;;;19.77;2.50;;;;;;;;;;5021260;28;20052;-72
2023/09/28 07:32:08;;;;;;;22.40;2.92;;;;;;;;;;5037552;28;20080;-72
2023/09/28 07:34:35;;;;;;;19.00;2.15;;;;;;;;;;5008401;28;20149;-72
2023/09/28 07:37:03;;;;;;;18.63;2.20;;;;;;;;;;5019643;28;20053;-70
2023/09/28 07:39:30;;;;;;;15.23;2.20;;;;;;;;;;5038521;28;20056;-70
2023/09/28 07:41:59;;;;;;;21.25;2.28;;;;;;;;;;5036476;28;20120;-72
2023/09/28 07:44:27;;;;;;;24.23;2.42;;;;;;;;;;5030339;28;20146;-72
2023/09/28 07:46:54;;;;;;;20.85;2.80;;;;;;;;;;5039894;28;20068;-74
2023/09/28 07:49:21;;;;;;;17.77;2.30;;;;;;;;;;5021020;28;20057;-72
2023/09/28 07:51:48;;;;;;;8.95;1.77;;;;;;;;;;5021290;28;20049;-72
2023/09/28 07:54:19;;;;;;;16.70;2.30;;;;;;;;;;4987154;28;20063;-72
2023/09/28 07:56:47;;;;;;;22.55;3.33;;;;;;;;;;4969603;28;20065;-74
2023/09/28 07:59:28;;;;;;;19.42;2.55;;;;;;;;;;5036533;28;20331;-73
2023/09/28 08:01:55;;;;;;;19.85;3.03;;;;;;;;;;5037138;28;20056;-72
2023/09/28 08:04:30;;;;;;;15.85;1.92;;;;;;;;;;4961928;28;20121;-70
2023/09/28 08:06:58;;;;;;;19.33;2.30;;;;;;;;;;4978538;28;20201;-72
2023/09/28 08:09:25;;;;;;;21.30;2.20;;;;;;;;;;5001122;28;20107;-73
2023/09/28 08:11:56;;;;;;;21.27;2.80;;;;;;;;;;5031202;28;20060;-73
2023/09/28 08:14:27;;;;;;;18.35;2.70;;;;;;;;;;5008411;28;20183;-73
2023/09/28 08:16:56;;;;;;;19.50;2.70;;;;;;;;;;5038192;28;20147;-73
2023/09/28 08:19:36;;;;;;;15.02;2.20;;;;;;;;;;5026432;28;20049;-72
2023/09/28 08:22:03;;;;;;;13.48;2.25;;;;;;;;;;5025322;28;20052;-71
2023/09/28 08:24:32;;;;;;;14.93;2.58;;;;;;;;;;5029565;28;20114;-70
2023/09/28 08:26:59;;;;;;;16.00;2.50;;;;;;;;;;4980073;28;20080;-71
2023/09/28 08:29:27;;;;;;;18.50;2.75;;;;;;;;;;5046384;28;20099;-71
2023/09/28 08:31:57;;;;;;;15.27;2.20;;;;;;;;;;5041848;28;20053;-71
2023/09/28 08:34:24;;;;;;;20.30;2.50;;;;;;;;;;5010868;28;20065;-69
2023/09/28 08:36:52;;;;;;;20.70;2.33;;;;;;;;;;5001401;28;20114;-74
2023/09/28 08:39:21;;;;;;;13.93;2.17;;;;;;;;;;5024854;28;20061;-71
2023/09/28 08:41:55;;;;;;;25.10;4.43;;;;;;;;;;5025257;28;20045;-72
2023/09/28 08:44:27;;;;;;;18.13;3.28;;;;;;;;;;5023067;28;20063;-71
2023/09/28 08:46:58;;;;;;;24.17;2.38;;;;;;;;;;5017834;28;20059;-71
2023/09/28 08:49:29;;;;;;;29.10;2.95;;;;;;;;;;5040724;28;20103;-72
2023/09/28 08:51:56;;;;;;;19.73;1.98;;;;;;;;;;5022934;28;20052;-70
2023/09/28 08:54:26;;;;;;;14.63;1.75;;;;;;;;;;5011709;28;20064;-71
2023/09/28 08:56:57;;;;;;;18.90;2.85;;;;;;;;;;4943888;28;20054;-71
2023/09/28 08:59:28;;;;;;;13.43;2.10;;;;;;;;;;5003134;28;20062;-70
2023/09/28 09:02:00;;;;;;;15.68;2.25;;;;;;;;;;5023925;28;20056;-71
2023/09/28 09:04:28;;;;;;;11.02;1.95;;;;;;;;;;5034850;28;20061;-72
2023/09/28 09:06:57;;;;;;;18.15;2.47;;;;;;;;;;4930128;28;20575;-71
2023/09/28 09:09:25;;;;;;;14.65;2.22;;;;;;;;;;5024570;28;20134;-71
2023/09/28 09:11:53;;;;;;;20.63;2.75;;;;;;;;;;5022968;28;20061;-70
2023/09/28 09:14:31;;;;;;;18.27;2.60;;;;;;;;;;5021324;28;20061;-72
2023/09/28 09:17:00;;;;;;;19.55;2.28;;;;;;;;;;5008125;28;20147;-71
2023/09/28 09:19:34;;;;;;;21.40;2.47;;;;;;;;;;5022262;28;20065;-71
2023/09/28 09:22:01;;;;;;;15.73;2.55;;;;;;;;;;5021947;28;20080;-70
2023/09/28 09:24:30;;;;;;;17.70;2.17;;;;;;;;;;5021599;28;20061;-72
2023/09/28 09:26:57;;;;;;;19.90;3.25;;;;;;;;;;5011087;28;20087;-72
2023/09/28 09:29:28;;;;;;;20.88;2.45;;;;;;;;;;5023391;28;20057;-71
2023/09/28 09:31:55;;;;;;;15.27;1.95;;;;;;;;;;5027538;28;20053;-72
2023/09/28 09:34:24;;;;;;;23.02;2.13;;;;;;;;;;5020587;28;20060;-71
2023/09/28 09:36:56;;;;;;;19.77;2.28;;;;;;;;;;4983504;28;20136;-71
2023/09/28 09:39:24;;;;;;;22.83;2.90;;;;;;;;;;5021577;28;20068;-71
2023/09/28 09:41:53;;;;;;;22.95;3.17;;;;;;;;;;5040657;28;20067;-70
2023/09/28 09:44:26;;;;;;;15.70;2.08;;;;;;;;;;5020901;28;20139;-72
2023/09/28 09:46:54;;;;;;;11.55;2.03;;;;;;;;;;4951041;28;20080;-70
2023/09/28 09:49:24;;;;;;;13.45;2.25;;;;;;;;;;5026879;28;20053;-71
2023/09/28 09:51:51;;;;;;;15.43;2.15;;;;;;;;;;5022527;28;20045;-70
2023/09/28 09:54:20;;;;;;;16.00;2.10;;;;;;;;;;5020475;28;20053;-70
2023/09/28 09:56:47;;;;;;;;;;;;;;;;;;4999315;28;20063;-71
2023/09/28 09:59:21;;;;;;;15.53;1.93;;;;;;;;;;5022633;28;20019;-72
2023/09/28 10:01:49;;;;;;;13.13;2.13;;;;;;;;;;5022383;28;20049;-72
2023/09/28 10:04:22;;;;;;;14.07;2.65;;;;;;;;;;5020021;28;20065;-75
2023/09/28 10:06:52;;;;;;;21.50;2.95;;;;;;;;;;4997477;28;20196;-70
2023/09/28 10:09:21;;;;;;;15.02;2.15;;;;;;;;;;5021413;28;20115;-72
2023/09/28 10:11:51;;;;;;;15.52;2.20;;;;;;;;;;5042960;28;20125;-72
2023/09/28 10:14:26;;;;;;;14.98;2.25;;;;;;;;;;5040045;28;20127;-72
2023/09/28 10:16:54;;;;;;;17.55;2.40;;;;;;;;;;4904751;28;20069;-71
2023/09/28 10:19:24;;;;;;;;;;;;;;;;;;4910594;29;20055;-73
2023/09/28 10:21:55;;;;;;;20.63;2.28;;;;;;;;;;4934918;28;19957;-71
2023/09/28 10:24:30;;;;;;;19.67;1.98;;;;;;;;;;4939748;28;20058;-72
2023/09/28 10:27:08;;;;;;;12.18;2.17;;;;;;;;;;4952042;28;20053;-71
2023/09/28 10:29:35;;;;;;;21.77;1.97;;;;;;;;;;4981944;28;20054;-72
2023/09/28 10:32:03;;;;;;;14.43;2.00;;;;;;;;;;4984799;28;20148;-72
2023/09/28 10:34:34;;;;;;;12.15;2.08;;;;;;;;;;5005886;28;20053;-73
2023/09/28 10:37:22;;;;;;;16.77;2.13;;;;;;;;;;4996756;28;20071;-72
2023/09/28 10:39:51;;;;;;;18.23;2.33;;;;;;;;;;5038312;28;20049;-73
2023/09/28 10:42:23;;;;;;;24.10;2.45;;;;;;;;;;5035789;28;20049;-73
2023/09/28 10:44:51;;;;;;;16.35;2.90;;;;;;;;;;5036288;28;20053;-71
2023/09/28 10:47:21;;;;;;;;;;;;;;;;;;4929418;28;20058;-72
2023/09/28 10:49:59;;;;;;;14.82;2.10;;;;;;;;;;4943456;28;20306;-75
2023/09/28 10:53:09;;;;;;;11.57;2.05;;;;;;;;;;4976690;28;20058;-73
2023/09/28 11:08:28;;;;;;;19.00;2.13;;;;;;;;;;5138530;27;20427;-67
2023/09/28 11:10:58;;;;;;;17.20;2.22;;;;;;;;;;5137460;27;20059;-67
2023/09/28 11:13:25;;;;;;;18.67;2.13;;;;;;;;;;5135002;27;20115;-67
2023/09/28 11:15:54;;;;;;;14.35;1.67;;;;;;;;;;5119235;27;20080;-66
2023/09/28 11:18:25;;;;;;;15.70;2.42;;;;;;;;;;5040150;28;20051;-67
2023/09/28 11:20:52;;;;;;;14.48;3.88;;;;;;;;;;5057447;28;20534;-67
2023/09/28 11:23:28;;;;;;;22.13;4.22;;;;;;;;;;5069667;28;20111;-67
2023/09/28 11:25:55;;;;;;;17.17;3.15;;;;;;;;;;5072812;28;20055;-68
2023/09/28 11:28:31;;;;;;;13.60;2.03;;;;;;;;;;5072566;28;20056;-68
2023/09/28 11:31:07;;;;;;;12.40;2.30;;;;;;;;;;5071450;28;20046;-67
2023/09/28 11:33:35;;;;;;;16.30;2.22;;;;;;;;;;5052192;28;20051;-68
2023/09/28 11:36:03;;;;;;;15.48;2.30;;;;;;;;;;5047002;28;20126;-67
2023/09/28 11:38:32;;;;;;;13.43;1.60;;;;;;;;;;5099472;27;20058;-69
2023/09/28 11:40:59;;;;;;;13.80;2.92;;;;;;;;;;5094182;28;20068;-68
2023/09/28 11:43:26;;;;;;;15.32;3.20;;;;;;;;;;5094845;28;20102;-68
2023/09/28 11:45:53;;;;;;;21.90;2.67;;;;;;;;;;5090550;27;20082;-68
2023/09/28 11:48:24;;;;;;;18.95;2.75;;;;;;;;;;5092852;28;20150;-68
2023/09/28 11:50:51;;;;;;;11.68;1.80;;;;;;;;;;5096223;28;20090;-68
2023/09/28 11:53:18;;;;;;;13.07;2.10;;;;;;;;;;5094846;28;20066;-68
2023/09/28 11:55:47;;;;;;;12.73;1.85;;;;;;;;;;5093345;27;20072;-68
2023/09/28 11:58:20;;;;;;;13.65;2.33;;;;;;;;;;5091321;28;20082;-68
2023/09/28 12:00:47;;;;;;;11.75;2.17;;;;;;;;;;5091840;28;21965;-67
2023/09/28 12:03:14;;;;;;;12.75;2.30;;;;;;;;;;5094753;28;20071;-68
2023/09/28 12:05:41;;;;;;;17.50;2.10;;;;;;;;;;5093894;27;20152;-68
2023/09/28 12:08:10;;;;;;;18.23;2.70;;;;;;;;;;5089856;28;20063;-68
2023/09/28 12:10:37;;;;;;;11.73;1.83;;;;;;;;;;5086824;27;20115;-67
2023/09/28 12:13:08;;;;;;;14.30;2.70;;;;;;;;;;5094635;28;20062;-68
2023/09/28 12:15:48;;;;;;;14.25;1.48;;;;;;;;;;5091106;28;20052;-68
2023/09/28 12:18:15;;;;;;;27.48;2.70;;;;;;;;;;5054803;28;20063;-68
2023/09/28 12:20:54;;;;;;;23.75;2.17;;;;;;;;;;5053444;28;20121;-68
2023/09/28 12:23:26;;;;;;;15.77;2.10;;;;;;;;;;5062352;28;20080;-68
2023/09/28 12:25:55;;;;;;;17.52;2.30;;;;;;;;;;5054477;28;20088;-68
2023/09/28 12:28:28;;;;;;;13.68;2.72;;;;;;;;;;5056510;28;20103;-69
2023/09/28 12:30:56;;;;;;;17.00;2.00;;;;;;;;;;5065498;28;20064;-68
2023/09/28 12:33:23;;;;;;;13.48;1.92;;;;;;;;;;5061057;28;20063;-68
2023/09/28 12:35:50;;;;;;;15.35;2.03;;;;;;;;;;5074250;28;20056;-68
2023/09/28 12:38:17;;;;;;;14.63;2.28;;;;;;;;;;5054219;28;20099;-68
2023/09/28 12:40:44;;;;;;;17.70;2.03;;;;;;;;;;5051092;28;20134;-68
2023/09/28 12:43:11;;;;;;;13.20;2.05;;;;;;;;;;5059723;28;20110;-68
2023/09/28 12:45:41;;;;;;;11.40;1.77;;;;;;;;;;5059067;28;20049;-68
2023/09/28 12:48:09;;;;;;;12.52;1.95;;;;;;;;;;5046096;28;20048;-68
2023/09/28 12:50:37;;;;;;;13.73;2.15;;;;;;;;;;5051551;28;20048;-68
2023/09/28 12:53:13;;;;;;;13.45;2.38;;;;;;;;;;5059945;28;20137;-69
2023/09/28 12:55:42;;;;;;;15.68;2.03;;;;;;;;;;5059014;28;20057;-68
2023/09/28 12:58:09;;;;;;;15.07;2.60;;;;;;;;;;5011600;28;20048;-69
2023/09/28 13:00:36;;;;;;;20.60;2.50;;;;;;;;;;5051871;28;20076;-69
2023/09/28 13:03:07;;;;;;;16.77;2.13;;;;;;;;;;5077439;28;20085;-68
2023/09/28 13:05:37;;;;;;;25.63;8.13;;;;;;;;;;5090934;28;20255;-68
2023/09/28 13:08:07;;;;;;;17.73;2.53;;;;;;;;;;5023710;28;20048;-68
2023/09/28 13:10:34;;;;;;;16.00;3.00;;;;;;;;;;5037441;28;20057;-67
2023/09/28 13:13:05;;;;;;;36.63;14.70;;;;;;;;;;5052713;28;20206;-67
2023/09/28 13:15:33;;;;;;;21.95;4.68;;;;;;;;;;5061621;28;20052;-69
2023/09/28 13:18:07;;;;;;;15.25;2.25;;;;;;;;;;5036436;28;20089;-68
2023/09/28 13:20:38;;;;;;;13.00;1.85;;;;;;;;;;5058309;28;20048;-71
2023/09/28 13:23:15;;;;;;;15.45;2.25;;;;;;;;;;5060095;28;20051;-69
2023/09/28 13:25:42;;;;;;;11.13;1.65;;;;;;;;;;5060040;28;20138;-71
2023/09/28 13:28:10;;;;;;;17.85;2.20;;;;;;;;;;5050014;28;20052;-70
2023/09/28 13:31:01;;;;;;;;;;;;;;;;;;;;;
2023/09/28 13:33:29;;;;;;;13.20;1.73;;;;;;;;;;5063151;28;20056;-69
2023/09/28 13:35:57;;;;;;;10.60;1.90;;;;;;;;;;5064677;28;20059;-70
2023/09/28 13:38:24;;;;;;;10.57;2.08;;;;;;;;;;5044303;28;20127;-70
2023/09/28 13:40:51;;;;;;;14.50;2.25;;;;;;;;;;5056595;28;20084;-70
2023/09/28 13:43:19;;;;;;;8.32;1.98;;;;;;;;;;5061008;28;20076;-69
2023/09/28 13:46:12;;;;;;;16.15;2.15;;;;;;;;;;5057933;28;20091;-69
2023/09/28 13:48:49;;;;;;;18.88;2.28;;;;;;;;;;4995010;28;20161;-67
2023/09/28 13:51:22;;;;;;;12.73;2.20;;;;;;;;;;5038524;28;20084;-69
2023/09/28 13:53:52;;;;;;;10.95;2.05;;;;;;;;;;5037695;28;20118;-69
2023/09/28 13:56:19;;;;;;;9.40;1.95;;;;;;;;;;5030683;28;20090;-69
2023/09/28 13:58:46;;;;;;;8.07;1.83;;;;;;;;;;5031510;28;20067;-70
2023/09/28 14:01:13;;;;;;;9.23;2.05;;;;;;;;;;5047658;28;20064;-70
2023/09/28 14:03:40;;;;;;;11.10;1.80;;;;;;;;;;5072079;28;20044;-68
2023/09/28 14:06:07;;;;;;;11.95;2.35;;;;;;;;;;5077537;28;20105;-70
2023/09/28 14:08:39;;;;;;;9.52;2.03;;;;;;;;;;5088174;28;20064;-71
2023/09/28 14:11:11;;;;;;;16.02;2.22;;;;;;;;;;5100793;28;20047;-70
2023/09/28 14:13:38;;;;;;;10.10;1.80;;;;;;;;;;5080727;28;20071;-67
2023/09/28 14:16:09;;;;;;;13.02;2.50;;;;;;;;;;5074904;28;20154;-68
2023/09/28 14:18:57;;;;;;;;;;;;;;;;;;;;;
2023/09/28 14:21:25;;;;;;;20.00;1.95;;;;;;;;;;5103537;28;20056;-68
2023/09/28 14:23:53;;;;;;;13.77;2.13;;;;;;;;;;5099675;27;20043;-69
2023/09/28 14:26:21;;;;;;;11.15;1.92;;;;;;;;;;5096274;27;20059;-69
2023/09/28 14:28:51;;;;;;;9.15;1.65;;;;;;;;;;5028390;28;20112;-69
2023/09/28 14:31:20;;;;;;;14.88;2.53;;;;;;;;;;5077373;28;20123;-69
2023/09/28 14:33:47;;;;;;;9.85;1.90;;;;;;;;;;5079276;28;20082;-70
2023/09/28 14:36:14;;;;;;;16.98;1.92;;;;;;;;;;5081349;28;20078;-68
2023/09/28 14:38:41;;;;;;;15.73;1.80;;;;;;;;;;5065913;28;20052;-68
2023/09/28 14:41:10;;;;;;;15.07;2.65;;;;;;;;;;5060427;28;20060;-69
2023/09/28 14:43:40;;;;;;;;;;;;;;;;;;5058829;28;20040;-68
2023/09/28 14:46:06;;;;;;;11.38;1.90;;;;;;;;;;5075759;28;19920;-68
2023/09/28 14:48:35;;;;;;;11.63;1.80;;;;;;;;;;5045674;28;20048;-69
2023/09/28 14:51:01;;;;;;;13.60;2.28;;;;;;;;;;5056711;28;20076;-69
2023/09/28 14:53:28;;;;;;;15.55;2.47;;;;;;;;;;5058170;28;20072;-69
2023/09/28 14:55:56;;;;;;;14.00;1.92;;;;;;;;;;5062651;28;20052;-68
2023/09/28 14:58:26;;;;;;;8.77;2.03;;;;;;;;;;5001742;28;20060;-69
2023/09/28 15:00:53;;;;;;;11.50;1.90;;;;;;;;;;5059533;28;20048;-69